createdAt,value
2023-05-11T00:02:10.204Z,12.40
2023-05-11T00:07:12.235Z,12.40
2023-05-11T00:12:14.403Z,12.40
2023-05-11T00:17:16.426Z,12.30
2023-05-11T00:22:18.433Z,12.20
2023-05-11T00:27:20.513Z,12.20
2023-05-11T00:32:22.838Z,12.10
2023-05-11T00:37:26.074Z,12.30
2023-05-11T00:42:28.369Z,12.10
2023-05-11T00:47:31.198Z,12.10
2023-05-11T00:52:33.402Z,12.00
2023-05-11T00:57:36.390Z,12.10
2023-05-11T01:02:39.280Z,12.10
2023-05-11T01:07:59.460Z,12.10
2023-05-11T01:13:18.343Z,12.00
2023-05-11T01:18:22.722Z,12.00
2023-05-11T01:24:02.330Z,12.00
2023-05-11T01:29:21.849Z,12.00
2023-05-11T01:34:27.641Z,11.90
2023-05-11T01:39:45.285Z,11.80
2023-05-11T01:44:53.135Z,11.80
2023-05-11T01:49:57.616Z,11.70
2023-05-11T01:55:00.793Z,11.60
2023-05-11T02:00:04.349Z,11.70
2023-05-11T02:05:19.883Z,11.60
2023-05-11T02:10:25.349Z,11.70
2023-05-11T02:15:28.998Z,11.80
2023-05-11T02:20:33.090Z,11.80
2023-05-11T02:25:36.918Z,11.80
2023-05-11T02:30:45.491Z,11.80
2023-05-11T02:35:49.021Z,11.80
2023-05-11T02:40:55.478Z,11.80
2023-05-11T02:46:03.464Z,11.60
2023-05-11T02:51:08.545Z,11.40
2023-05-11T02:56:16.890Z,11.40
2023-05-11T03:01:20.400Z,11.40
2023-05-11T03:06:22.694Z,11.40
2023-05-11T03:11:26.248Z,11.40
2023-05-11T03:16:29.649Z,11.40
2023-05-11T03:21:32.386Z,11.30
2023-05-11T03:26:36.320Z,11.40
2023-05-11T03:31:38.428Z,11.50
2023-05-11T03:36:42.759Z,11.50
2023-05-11T03:41:51.115Z,11.50
2023-05-11T03:46:56.548Z,11.50
2023-05-11T03:51:59.224Z,11.50
2023-05-11T03:57:02.124Z,11.50
2023-05-11T04:02:04.370Z,11.40
2023-05-11T04:07:06.460Z,11.30
2023-05-11T04:12:08.608Z,11.40
2023-05-11T04:17:10.846Z,11.40
2023-05-11T04:22:12.849Z,11.50
2023-05-11T04:27:16.576Z,11.50
2023-05-11T04:32:18.672Z,11.40
2023-05-11T04:37:20.845Z,11.50
2023-05-11T04:42:22.846Z,11.60
2023-05-11T04:47:27.551Z,11.40
2023-05-11T04:52:29.766Z,11.40
2023-05-11T04:57:31.991Z,11.50
2023-05-11T05:02:34.511Z,11.40
2023-05-11T05:07:36.694Z,11.60
2023-05-11T05:12:39.512Z,11.70
2023-05-11T05:17:41.616Z,11.60
2023-05-11T05:22:43.919Z,11.70
2023-05-11T05:27:46.129Z,11.80
2023-05-11T05:32:53.403Z,11.70
2023-05-11T05:37:55.942Z,11.80
2023-05-11T05:42:57.982Z,11.90
2023-05-11T05:48:00.954Z,11.90
2023-05-11T05:53:03.180Z,12.00
2023-05-11T05:58:06.352Z,12.10
2023-05-11T06:03:08.987Z,11.90
2023-05-11T06:08:11.777Z,12.10
2023-05-11T06:13:14.762Z,12.10
2023-05-11T06:18:18.984Z,12.30
2023-05-11T06:23:21.465Z,12.50
2023-05-11T06:28:24.646Z,12.50
2023-05-11T06:33:31.619Z,12.60
2023-05-11T06:38:34.544Z,12.70
2023-05-11T06:43:38.460Z,12.40
2023-05-11T06:48:43.541Z,12.50
2023-05-11T06:53:45.650Z,12.70
2023-05-11T06:58:47.659Z,12.60
2023-05-11T07:03:51.330Z,12.70
2023-05-11T07:08:54.673Z,12.70
2023-05-11T07:13:56.766Z,12.90
2023-05-11T07:18:58.804Z,13.00
2023-05-11T07:24:00.924Z,13.00
2023-05-11T07:29:02.993Z,13.00
2023-05-11T07:34:05.068Z,12.90
2023-05-11T07:39:07.101Z,12.90
2023-05-11T07:44:09.112Z,13.00
2023-05-11T07:49:18.626Z,13.00
2023-05-11T07:54:24.928Z,13.00
2023-05-11T07:59:27.038Z,13.20
2023-05-11T08:04:30.365Z,13.10
2023-05-11T08:09:32.471Z,13.40
2023-05-11T08:14:34.516Z,13.60
2023-05-11T08:19:36.553Z,13.90
2023-05-11T08:24:38.848Z,14.20
2023-05-11T08:29:41.172Z,14.40
2023-05-11T08:34:43.815Z,14.60
2023-05-11T08:39:47.935Z,14.70
2023-05-11T08:44:50.777Z,14.80
2023-05-11T08:49:53.572Z,15.00
2023-05-11T08:54:55.763Z,15.20
2023-05-11T08:59:59.092Z,15.00
2023-05-11T09:05:04.361Z,15.20
2023-05-11T09:10:07.574Z,15.20
2023-05-11T09:15:10.126Z,15.50
2023-05-11T09:20:12.533Z,15.40
2023-05-11T09:25:17.696Z,15.60
2023-05-11T09:30:24.035Z,15.80
2023-05-11T09:35:27.242Z,16.10
2023-05-11T09:40:34.258Z,16.60
2023-05-11T09:45:41.815Z,17.30
2023-05-11T09:50:44.075Z,17.50
2023-05-11T09:55:53.731Z,17.60
2023-05-11T10:00:56.016Z,17.60
2023-05-11T10:06:02.003Z,17.30
2023-05-11T10:11:06.794Z,16.90
2023-05-11T10:16:10.288Z,18.00
2023-05-11T10:21:15.544Z,17.90
2023-05-11T10:26:17.850Z,18.20
2023-05-11T10:31:24.296Z,18.40
2023-05-11T10:36:27.127Z,19.40
2023-05-11T10:42:08.289Z,19.50
2023-05-11T10:47:10.345Z,18.80
2023-05-11T10:52:45.615Z,18.50
2023-05-11T10:58:01.777Z,18.40
2023-05-11T11:03:14.544Z,18.30
2023-05-11T11:08:16.750Z,18.60
2023-05-11T11:13:20.273Z,18.60
2023-05-11T11:18:35.821Z,18.30
2023-05-11T11:23:44.822Z,18.20
2023-05-11T11:29:00.879Z,18.10
2023-05-11T11:34:27.796Z,18.90
2023-05-11T11:39:46.655Z,20.20
2023-05-11T11:44:48.888Z,19.80
2023-05-11T11:49:53.564Z,19.30
2023-05-11T11:54:57.321Z,18.60
2023-05-11T12:00:07.465Z,18.30
2023-05-11T12:05:23.475Z,18.10
2023-05-11T12:10:25.974Z,18.40
2023-05-11T12:15:29.892Z,18.30
2023-05-11T12:20:33.114Z,18.00
2023-05-11T12:25:35.398Z,17.90
2023-05-11T12:30:37.437Z,17.80
2023-05-11T12:35:40.567Z,17.30
2023-05-11T12:40:51.117Z,17.10
2023-05-11T12:45:53.254Z,17.00
2023-05-11T12:50:55.322Z,17.10
2023-05-11T12:55:58.970Z,17.50
2023-05-11T13:01:00.999Z,17.80
2023-05-11T13:06:08.260Z,18.40
2023-05-11T13:11:25.870Z,18.70
2023-05-11T13:16:29.786Z,19.50
2023-05-11T13:21:33.720Z,19.70
2023-05-11T13:26:36.083Z,19.00
2023-05-11T13:31:48.946Z,18.50
2023-05-11T13:36:51.471Z,18.60
2023-05-11T13:41:55.631Z,18.50
2023-05-11T13:46:58.085Z,18.30
2023-05-11T13:52:00.684Z,17.90
2023-05-11T13:57:03.105Z,18.30
2023-05-11T14:02:05.601Z,18.40
2023-05-11T14:07:07.866Z,18.20
2023-05-11T14:12:10.521Z,18.40
2023-05-11T14:17:13.746Z,18.70
2023-05-11T14:22:15.786Z,18.40
2023-05-11T14:27:17.985Z,18.10
2023-05-11T14:32:20.142Z,18.10
2023-05-11T14:37:22.162Z,17.90
2023-05-11T14:42:24.164Z,17.90
2023-05-11T14:47:26.334Z,17.90
2023-05-11T14:52:28.417Z,17.50
2023-05-11T14:57:30.475Z,17.20
2023-05-11T15:02:32.675Z,17.00
2023-05-11T15:07:35.177Z,16.70
2023-05-11T15:12:37.214Z,16.50
2023-05-11T15:17:39.304Z,16.50
2023-05-11T15:22:41.561Z,16.50
2023-05-11T15:27:43.825Z,16.50
2023-05-11T15:32:46.064Z,16.50
2023-05-11T15:37:48.354Z,16.00
2023-05-11T15:42:50.356Z,16.10
2023-05-11T15:47:52.434Z,16.10
2023-05-11T15:52:56.494Z,16.00
2023-05-11T15:57:58.494Z,15.80
2023-05-11T16:03:00.572Z,15.70
2023-05-11T16:08:03.043Z,15.70
2023-05-11T16:13:05.423Z,15.50
2023-05-11T16:18:07.825Z,15.40
2023-05-11T16:23:10.001Z,15.30
2023-05-11T16:28:13.136Z,15.10
2023-05-11T16:33:16.347Z,15.00
2023-05-11T16:38:22.732Z,14.90
2023-05-11T16:43:24.800Z,14.70
2023-05-11T16:48:27.502Z,14.60
2023-05-11T16:53:30.638Z,14.60
2023-05-11T16:58:33.204Z,14.70
2023-05-11T17:03:35.349Z,14.70
2023-05-11T17:08:37.481Z,14.60
2023-05-11T17:13:40.707Z,14.40
2023-05-11T17:18:42.807Z,14.30
2023-05-11T17:23:45.251Z,14.00
2023-05-11T17:28:47.461Z,14.00
2023-05-11T17:33:49.693Z,14.00
2023-05-11T17:38:53.697Z,13.90
2023-05-11T17:43:55.915Z,13.90
2023-05-11T17:48:58.169Z,13.70
2023-05-11T17:54:00.245Z,13.70
2023-05-11T17:59:02.723Z,13.50
2023-05-11T18:04:05.206Z,13.40
2023-05-11T18:09:09.433Z,13.30
2023-05-11T18:14:11.778Z,13.30
2023-05-11T18:19:18.678Z,13.30
2023-05-11T18:24:20.766Z,13.30
2023-05-11T18:29:23.739Z,13.10
2023-05-11T18:34:28.042Z,13.00
2023-05-11T18:39:30.637Z,13.00
2023-05-11T18:44:34.534Z,12.90
2023-05-11T18:49:37.478Z,12.90
2023-05-11T18:54:39.539Z,12.90
2023-05-11T18:59:41.536Z,12.90
2023-05-11T19:04:44.033Z,12.90
2023-05-11T19:09:46.286Z,12.90
2023-05-11T19:14:48.440Z,12.90
2023-05-11T19:19:51.454Z,12.90
2023-05-11T19:24:53.621Z,12.80
2023-05-11T19:29:56.267Z,12.80
2023-05-11T19:34:58.320Z,12.80
2023-05-11T19:40:25.762Z,12.90
2023-05-11T19:45:22.571Z,12.90
2023-05-11T19:50:25.322Z,12.80
2023-05-11T19:55:27.720Z,12.70
2023-05-11T20:00:29.905Z,12.80
2023-05-11T20:05:31.939Z,12.80
2023-05-11T20:10:34.955Z,12.90
2023-05-11T20:15:37.296Z,12.90
2023-05-11T20:20:39.462Z,12.90
2023-05-11T20:25:43.971Z,12.90
2023-05-11T20:30:46.128Z,13.00
2023-05-11T20:35:48.340Z,13.00
2023-05-11T20:40:50.375Z,13.00
2023-05-11T20:45:52.749Z,12.80
2023-05-11T20:50:55.314Z,12.80
2023-05-11T20:55:57.423Z,12.80
2023-05-11T21:00:59.657Z,12.80
2023-05-11T21:06:01.730Z,12.70
2023-05-11T21:11:03.999Z,12.70
2023-05-11T21:21:50.841Z,12.80
2023-05-11T21:26:52.859Z,12.80
2023-05-11T21:31:55.800Z,12.90
2023-05-11T21:36:57.846Z,12.90
2023-05-11T21:42:00.097Z,12.90
2023-05-11T21:47:02.155Z,13.00
2023-05-11T21:52:05.969Z,12.90
2023-05-11T21:57:08.210Z,13.00
2023-05-11T22:02:10.268Z,13.10
2023-05-11T22:07:12.859Z,13.10
2023-05-11T22:12:14.843Z,13.10
2023-05-11T22:17:16.932Z,13.10
2023-05-11T22:22:19.073Z,13.10
2023-05-11T22:27:21.166Z,13.10
2023-05-11T22:32:23.217Z,13.10
2023-05-11T22:37:25.789Z,13.00
2023-05-11T22:42:30.921Z,13.00
2023-05-11T22:47:33.130Z,13.10
2023-05-11T22:52:36.459Z,13.00
2023-05-11T22:57:38.590Z,13.00
2023-05-11T23:02:41.423Z,13.10
2023-05-11T23:07:43.738Z,13.10
2023-05-11T23:12:46.193Z,13.10
2023-05-11T23:17:48.279Z,13.00
2023-05-11T23:22:50.320Z,13.10
2023-05-11T23:27:54.917Z,13.10
2023-05-11T23:32:57.213Z,13.10
2023-05-11T23:37:59.624Z,13.10
2023-05-11T23:43:01.688Z,13.10
2023-05-11T23:48:03.833Z,13.10
2023-05-11T23:53:06.013Z,13.00
2023-05-11T23:58:08.723Z,13.00
